Terminal Aerodrome Forecast
Issued by NWS

Home | Current Version | Previous Version | Text Only | Print | Product List | Glossary On
Versions: 1 2 3 4 5 6 7 8 9 10 11 12 13 14 15 16 17 18 19 20 21 22
577
FTUS43 KILX 181737
TAFCMI
TAF
KCMI 181737Z 1818/1918 24014G22KT P6SM OVC035
     FM182000 23014G23KT P6SM SCT015 OVC025
      TEMPO 1820/1823 BKN015
     FM190000 22012KT P6SM SKC
     FM191600 27022KT P6SM SKC=

USA.gov is the U.S. government's official web portal to all federal, state and local government web resources and services.